sensor_id;sensor_type;location;lat;lon;timestamp;P1;durP1;ratioP1;P2;durP2;ratioP2
36221;SDS011;22266;52.340;4.962;2023-09-19T00:00:43;0.25;;;0.00;;
36221;SDS011;22266;52.340;4.962;2023-09-19T00:03:13;0.00;;;0.00;;
36221;SDS011;22266;52.340;4.962;2023-09-19T00:05:41;0.00;;;0.00;;
36221;SDS011;22266;52.340;4.962;2023-09-19T00:08:10;0.00;;;0.00;;
36221;SDS011;22266;52.340;4.962;2023-09-19T00:10:37;0.00;;;0.00;;
36221;SDS011;22266;52.340;4.962;2023-09-19T00:13:04;1.00;;;1.00;;
36221;SDS011;22266;52.340;4.962;2023-09-19T00:15:39;2.00;;;0.00;;
36221;SDS011;22266;52.340;4.962;2023-09-19T00:18:07;2.00;;;0.00;;
36221;SDS011;22266;52.340;4.962;2023-09-19T00:20:35;0.25;;;0.25;;
36221;SDS011;22266;52.340;4.962;2023-09-19T00:23:02;1.00;;;1.00;;
36221;SDS011;22266;52.340;4.962;2023-09-19T00:25:30;0.25;;;0.25;;
36221;SDS011;22266;52.340;4.962;2023-09-19T00:27:59;1.00;;;1.00;;
36221;SDS011;22266;52.340;4.962;2023-09-19T00:30:26;0.00;;;0.00;;
36221;SDS011;22266;52.340;4.962;2023-09-19T00:32:53;1.00;;;1.00;;
36221;SDS011;22266;52.340;4.962;2023-09-19T00:35:21;1.75;;;0.50;;
36221;SDS011;22266;52.340;4.962;2023-09-19T00:37:51;0.00;;;0.00;;
36221;SDS011;22266;52.340;4.962;2023-09-19T00:40:18;0.00;;;0.00;;
36221;SDS011;22266;52.340;4.962;2023-09-19T00:42:46;1.00;;;1.00;;
36221;SDS011;22266;52.340;4.962;2023-09-19T00:45:19;1.00;;;0.00;;
36221;SDS011;22266;52.340;4.962;2023-09-19T00:47:48;0.00;;;0.00;;
36221;SDS011;22266;52.340;4.962;2023-09-19T00:50:17;0.00;;;0.00;;
36221;SDS011;22266;52.340;4.962;2023-09-19T00:52:48;0.00;;;0.00;;
36221;SDS011;22266;52.340;4.962;2023-09-19T00:55:16;2.00;;;0.50;;
36221;SDS011;22266;52.340;4.962;2023-09-19T00:57:46;0.00;;;0.00;;
36221;SDS011;22266;52.340;4.962;2023-09-19T01:00:14;1.25;;;0.00;;
36221;SDS011;22266;52.340;4.962;2023-09-19T01:02:42;0.00;;;0.00;;
36221;SDS011;22266;52.340;4.962;2023-09-19T01:05:11;0.25;;;0.00;;
36221;SDS011;22266;52.340;4.962;2023-09-19T01:07:38;0.00;;;0.00;;
36221;SDS011;22266;52.340;4.962;2023-09-19T01:10:08;0.50;;;0.00;;
36221;SDS011;22266;52.340;4.962;2023-09-19T01:24:23;1.00;;;0.00;;
36221;SDS011;22266;52.340;4.962;2023-09-19T01:29:46;0.50;;;0.00;;
36221;SDS011;22266;52.340;4.962;2023-09-19T01:32:19;1.00;;;0.00;;
36221;SDS011;22266;52.340;4.962;2023-09-19T01:34:54;0.00;;;0.00;;
36221;SDS011;22266;52.340;4.962;2023-09-19T01:37:26;0.00;;;0.00;;
36221;SDS011;22266;52.340;4.962;2023-09-19T01:39:55;2.00;;;0.00;;
36221;SDS011;22266;52.340;4.962;2023-09-19T01:48:37;0.00;;;0.00;;
36221;SDS011;22266;52.340;4.962;2023-09-19T01:51:09;0.25;;;0.00;;
36221;SDS011;22266;52.340;4.962;2023-09-19T01:53:43;0.00;;;0.00;;
36221;SDS011;22266;52.340;4.962;2023-09-19T01:56:16;0.00;;;0.00;;
36221;SDS011;22266;52.340;4.962;2023-09-19T01:58:49;0.50;;;0.50;;
36221;SDS011;22266;52.340;4.962;2023-09-19T02:01:22;3.25;;;0.00;;
36221;SDS011;22266;52.340;4.962;2023-09-19T02:03:51;0.75;;;0.75;;
36221;SDS011;22266;52.340;4.962;2023-09-19T02:06:18;2.00;;;1.00;;
36221;SDS011;22266;52.340;4.962;2023-09-19T02:08:47;0.00;;;0.00;;
36221;SDS011;22266;52.340;4.962;2023-09-19T02:11:15;3.50;;;1.00;;
36221;SDS011;22266;52.340;4.962;2023-09-19T02:13:42;0.75;;;0.00;;
36221;SDS011;22266;52.340;4.962;2023-09-19T02:16:10;2.00;;;0.00;;
36221;SDS011;22266;52.340;4.962;2023-09-19T02:18:39;0.75;;;0.00;;
36221;SDS011;22266;52.340;4.962;2023-09-19T02:21:05;0.00;;;0.00;;
36221;SDS011;22266;52.340;4.962;2023-09-19T02:23:39;1.25;;;0.00;;
36221;SDS011;22266;52.340;4.962;2023-09-19T02:26:06;2.00;;;0.00;;
36221;SDS011;22266;52.340;4.962;2023-09-19T02:28:33;1.50;;;0.50;;
36221;SDS011;22266;52.340;4.962;2023-09-19T02:31:02;0.50;;;0.00;;
36221;SDS011;22266;52.340;4.962;2023-09-19T02:33:28;1.00;;;0.00;;
36221;SDS011;22266;52.340;4.962;2023-09-19T02:35:59;0.00;;;0.00;;
36221;SDS011;22266;52.340;4.962;2023-09-19T02:38:26;0.75;;;0.00;;
36221;SDS011;22266;52.340;4.962;2023-09-19T02:40:53;1.00;;;0.00;;
36221;SDS011;22266;52.340;4.962;2023-09-19T02:43:21;1.00;;;0.00;;
36221;SDS011;22266;52.340;4.962;2023-09-19T02:45:48;1.00;;;1.00;;
36221;SDS011;22266;52.340;4.962;2023-09-19T02:48:16;1.67;;;1.00;;
36221;SDS011;22266;52.340;4.962;2023-09-19T02:50:43;1.00;;;1.00;;
36221;SDS011;22266;52.340;4.962;2023-09-19T02:53:10;0.00;;;0.00;;
36221;SDS011;22266;52.340;4.962;2023-09-19T02:55:40;0.00;;;0.00;;
36221;SDS011;22266;52.340;4.962;2023-09-19T02:58:07;0.00;;;0.00;;
36221;SDS011;22266;52.340;4.962;2023-09-19T03:00:41;0.00;;;0.00;;
36221;SDS011;22266;52.340;4.962;2023-09-19T03:03:14;1.00;;;0.00;;
36221;SDS011;22266;52.340;4.962;2023-09-19T03:05:43;2.00;;;1.00;;
36221;SDS011;22266;52.340;4.962;2023-09-19T03:08:15;2.00;;;1.00;;
36221;SDS011;22266;52.340;4.962;2023-09-19T03:10:48;0.75;;;0.00;;
36221;SDS011;22266;52.340;4.962;2023-09-19T03:13:16;1.33;;;0.00;;
36221;SDS011;22266;52.340;4.962;2023-09-19T03:15:43;0.00;;;0.00;;
36221;SDS011;22266;52.340;4.962;2023-09-19T03:18:16;1.00;;;1.00;;
36221;SDS011;22266;52.340;4.962;2023-09-19T03:20:51;0.00;;;0.00;;
36221;SDS011;22266;52.340;4.962;2023-09-19T03:23:21;1.50;;;0.00;;
36221;SDS011;22266;52.340;4.962;2023-09-19T03:25:48;0.75;;;0.25;;
36221;SDS011;22266;52.340;4.962;2023-09-19T03:28:15;2.00;;;1.00;;
36221;SDS011;22266;52.340;4.962;2023-09-19T03:30:42;1.75;;;1.00;;
36221;SDS011;22266;52.340;4.962;2023-09-19T03:33:09;1.00;;;0.00;;
36221;SDS011;22266;52.340;4.962;2023-09-19T03:35:39;2.00;;;1.00;;
36221;SDS011;22266;52.340;4.962;2023-09-19T03:38:06;1.00;;;1.00;;
36221;SDS011;22266;52.340;4.962;2023-09-19T03:40:32;0.00;;;0.00;;
36221;SDS011;22266;52.340;4.962;2023-09-19T03:43:02;1.00;;;1.00;;
36221;SDS011;22266;52.340;4.962;2023-09-19T03:45:29;1.67;;;0.00;;
36221;SDS011;22266;52.340;4.962;2023-09-19T03:47:56;1.00;;;1.00;;
36221;SDS011;22266;52.340;4.962;2023-09-19T03:50:23;0.25;;;0.25;;
36221;SDS011;22266;52.340;4.962;2023-09-19T03:52:50;0.00;;;0.00;;
36221;SDS011;22266;52.340;4.962;2023-09-19T03:55:22;1.00;;;1.00;;
36221;SDS011;22266;52.340;4.962;2023-09-19T03:57:48;2.00;;;0.00;;
36221;SDS011;22266;52.340;4.962;2023-09-19T04:00:16;0.00;;;0.00;;
36221;SDS011;22266;52.340;4.962;2023-09-19T04:02:47;0.00;;;0.00;;
36221;SDS011;22266;52.340;4.962;2023-09-19T04:05:14;1.00;;;0.67;;
36221;SDS011;22266;52.340;4.962;2023-09-19T04:07:41;0.00;;;0.00;;
36221;SDS011;22266;52.340;4.962;2023-09-19T04:10:08;0.00;;;0.00;;
36221;SDS011;22266;52.340;4.962;2023-09-19T04:12:36;0.67;;;0.67;;
36221;SDS011;22266;52.340;4.962;2023-09-19T04:15:02;1.00;;;0.00;;
36221;SDS011;22266;52.340;4.962;2023-09-19T04:17:30;0.00;;;0.00;;
36221;SDS011;22266;52.340;4.962;2023-09-19T04:19:59;0.67;;;0.00;;
36221;SDS011;22266;52.340;4.962;2023-09-19T04:22:26;0.00;;;0.00;;
36221;SDS011;22266;52.340;4.962;2023-09-19T04:24:53;0.00;;;0.00;;
36221;SDS011;22266;52.340;4.962;2023-09-19T04:27:19;1.00;;;1.00;;
36221;SDS011;22266;52.340;4.962;2023-09-19T04:29:46;1.00;;;1.00;;
36221;SDS011;22266;52.340;4.962;2023-09-19T04:32:12;1.00;;;0.25;;
36221;SDS011;22266;52.340;4.962;2023-09-19T04:34:39;4.33;;;2.00;;
36221;SDS011;22266;52.340;4.962;2023-09-19T04:37:06;0.67;;;0.67;;
36221;SDS011;22266;52.340;4.962;2023-09-19T04:39:32;1.00;;;0.00;;
36221;SDS011;22266;52.340;4.962;2023-09-19T04:42:00;0.00;;;0.00;;
36221;SDS011;22266;52.340;4.962;2023-09-19T04:44:27;0.00;;;0.00;;
36221;SDS011;22266;52.340;4.962;2023-09-19T04:46:54;1.00;;;0.00;;
36221;SDS011;22266;52.340;4.962;2023-09-19T04:49:20;2.00;;;0.33;;
36221;SDS011;22266;52.340;4.962;2023-09-19T04:51:47;1.25;;;0.00;;
36221;SDS011;22266;52.340;4.962;2023-09-19T04:54:13;0.00;;;0.00;;
36221;SDS011;22266;52.340;4.962;2023-09-19T04:56:41;0.25;;;0.25;;
36221;SDS011;22266;52.340;4.962;2023-09-19T04:59:07;0.00;;;0.00;;
36221;SDS011;22266;52.340;4.962;2023-09-19T05:01:34;1.00;;;0.00;;
36221;SDS011;22266;52.340;4.962;2023-09-19T05:04:00;0.00;;;0.00;;
36221;SDS011;22266;52.340;4.962;2023-09-19T05:06:27;1.00;;;1.00;;
36221;SDS011;22266;52.340;4.962;2023-09-19T05:08:54;2.00;;;0.00;;
36221;SDS011;22266;52.340;4.962;2023-09-19T05:11:20;0.00;;;0.00;;
36221;SDS011;22266;52.340;4.962;2023-09-19T05:13:49;0.67;;;0.67;;
36221;SDS011;22266;52.340;4.962;2023-09-19T05:16:22;0.00;;;0.00;;
36221;SDS011;22266;52.340;4.962;2023-09-19T05:18:48;0.67;;;0.67;;
36221;SDS011;22266;52.340;4.962;2023-09-19T05:21:15;0.00;;;0.00;;
36221;SDS011;22266;52.340;4.962;2023-09-19T05:23:43;0.00;;;0.00;;
36221;SDS011;22266;52.340;4.962;2023-09-19T05:26:10;1.00;;;1.00;;
36221;SDS011;22266;52.340;4.962;2023-09-19T05:28:37;1.00;;;0.00;;
36221;SDS011;22266;52.340;4.962;2023-09-19T05:31:04;0.67;;;0.00;;
36221;SDS011;22266;52.340;4.962;2023-09-19T05:33:31;1.00;;;0.00;;
36221;SDS011;22266;52.340;4.962;2023-09-19T05:35:58;0.67;;;0.00;;
36221;SDS011;22266;52.340;4.962;2023-09-19T05:38:25;1.00;;;0.00;;
36221;SDS011;22266;52.340;4.962;2023-09-19T05:40:54;0.00;;;0.00;;
36221;SDS011;22266;52.340;4.962;2023-09-19T05:43:21;2.00;;;1.00;;
36221;SDS011;22266;52.340;4.962;2023-09-19T05:45:48;0.67;;;0.67;;
36221;SDS011;22266;52.340;4.962;2023-09-19T05:48:14;1.33;;;1.00;;
36221;SDS011;22266;52.340;4.962;2023-09-19T05:50:42;1.67;;;1.00;;
36221;SDS011;22266;52.340;4.962;2023-09-19T05:53:09;0.00;;;0.00;;
36221;SDS011;22266;52.340;4.962;2023-09-19T05:55:39;3.00;;;3.00;;
36221;SDS011;22266;52.340;4.962;2023-09-19T05:58:06;2.00;;;2.00;;
36221;SDS011;22266;52.340;4.962;2023-09-19T06:00:33;2.33;;;1.67;;
36221;SDS011;22266;52.340;4.962;2023-09-19T06:03:02;1.00;;;1.00;;
36221;SDS011;22266;52.340;4.962;2023-09-19T06:05:29;0.00;;;0.00;;
36221;SDS011;22266;52.340;4.962;2023-09-19T06:07:58;1.00;;;1.00;;
36221;SDS011;22266;52.340;4.962;2023-09-19T06:10:27;1.00;;;1.00;;
36221;SDS011;22266;52.340;4.962;2023-09-19T06:12:54;1.33;;;1.33;;
36221;SDS011;22266;52.340;4.962;2023-09-19T06:15:24;2.33;;;1.00;;
36221;SDS011;22266;52.340;4.962;2023-09-19T06:17:52;2.33;;;1.67;;
36221;SDS011;22266;52.340;4.962;2023-09-19T06:20:24;2.00;;;1.00;;
36221;SDS011;22266;52.340;4.962;2023-09-19T06:22:53;1.50;;;1.50;;
36221;SDS011;22266;52.340;4.962;2023-09-19T06:25:20;2.00;;;1.33;;
36221;SDS011;22266;52.340;4.962;2023-09-19T06:27:49;0.00;;;0.00;;
36221;SDS011;22266;52.340;4.962;2023-09-19T06:30:21;0.00;;;0.00;;
36221;SDS011;22266;52.340;4.962;2023-09-19T06:32:58;1.67;;;1.33;;
36221;SDS011;22266;52.340;4.962;2023-09-19T06:35:26;2.67;;;1.33;;
36221;SDS011;22266;52.340;4.962;2023-09-19T06:37:55;0.00;;;0.00;;
36221;SDS011;22266;52.340;4.962;2023-09-19T06:40:24;3.00;;;2.00;;
36221;SDS011;22266;52.340;4.962;2023-09-19T06:42:51;2.00;;;2.00;;
36221;SDS011;22266;52.340;4.962;2023-09-19T06:45:22;3.33;;;1.00;;
36221;SDS011;22266;52.340;4.962;2023-09-19T06:47:49;2.33;;;2.00;;
36221;SDS011;22266;52.340;4.962;2023-09-19T06:50:18;0.50;;;0.50;;
36221;SDS011;22266;52.340;4.962;2023-09-19T06:52:52;1.00;;;1.00;;
36221;SDS011;22266;52.340;4.962;2023-09-19T06:55:21;1.00;;;1.00;;
36221;SDS011;22266;52.340;4.962;2023-09-19T06:57:51;1.00;;;1.00;;
36221;SDS011;22266;52.340;4.962;2023-09-19T07:00:20;1.33;;;1.33;;
36221;SDS011;22266;52.340;4.962;2023-09-19T07:05:30;2.00;;;2.00;;
36221;SDS011;22266;52.340;4.962;2023-09-19T07:07:58;2.00;;;1.00;;
36221;SDS011;22266;52.340;4.962;2023-09-19T07:10:26;1.00;;;1.00;;
36221;SDS011;22266;52.340;4.962;2023-09-19T07:12:57;2.00;;;2.00;;
36221;SDS011;22266;52.340;4.962;2023-09-19T07:15:27;1.00;;;1.00;;
36221;SDS011;22266;52.340;4.962;2023-09-19T07:17:54;1.00;;;1.00;;
36221;SDS011;22266;52.340;4.962;2023-09-19T07:20:23;2.00;;;1.00;;
36221;SDS011;22266;52.340;4.962;2023-09-19T07:22:54;2.00;;;1.00;;
36221;SDS011;22266;52.340;4.962;2023-09-19T07:25:21;2.00;;;2.00;;
36221;SDS011;22266;52.340;4.962;2023-09-19T07:27:48;2.67;;;2.00;;
36221;SDS011;22266;52.340;4.962;2023-09-19T07:30:15;1.00;;;1.00;;
36221;SDS011;22266;52.340;4.962;2023-09-19T07:32:43;1.00;;;1.00;;
36221;SDS011;22266;52.340;4.962;2023-09-19T07:35:09;2.00;;;2.00;;
36221;SDS011;22266;52.340;4.962;2023-09-19T07:37:36;3.00;;;3.00;;
36221;SDS011;22266;52.340;4.962;2023-09-19T07:40:03;1.00;;;1.00;;
36221;SDS011;22266;52.340;4.962;2023-09-19T07:42:33;1.33;;;1.00;;
36221;SDS011;22266;52.340;4.962;2023-09-19T07:45:01;2.67;;;2.33;;
36221;SDS011;22266;52.340;4.962;2023-09-19T07:47:28;0.67;;;0.67;;
36221;SDS011;22266;52.340;4.962;2023-09-19T07:49:56;2.00;;;1.00;;
36221;SDS011;22266;52.340;4.962;2023-09-19T07:52:23;2.00;;;0.33;;
36221;SDS011;22266;52.340;4.962;2023-09-19T07:54:50;2.33;;;2.00;;
36221;SDS011;22266;52.340;4.962;2023-09-19T07:57:16;2.00;;;1.00;;
36221;SDS011;22266;52.340;4.962;2023-09-19T07:59:43;1.00;;;1.00;;
36221;SDS011;22266;52.340;4.962;2023-09-19T08:02:09;2.67;;;2.67;;
36221;SDS011;22266;52.340;4.962;2023-09-19T08:04:42;6.00;;;2.00;;
36221;SDS011;22266;52.340;4.962;2023-09-19T08:07:09;2.00;;;1.00;;
36221;SDS011;22266;52.340;4.962;2023-09-19T08:09:37;2.00;;;2.00;;
36221;SDS011;22266;52.340;4.962;2023-09-19T08:12:05;2.00;;;1.00;;
36221;SDS011;22266;52.340;4.962;2023-09-19T08:14:34;3.00;;;2.67;;
36221;SDS011;22266;52.340;4.962;2023-09-19T08:17:00;3.00;;;2.00;;
36221;SDS011;22266;52.340;4.962;2023-09-19T08:19:27;1.25;;;1.00;;
36221;SDS011;22266;52.340;4.962;2023-09-19T08:21:58;1.50;;;1.00;;
36221;SDS011;22266;52.340;4.962;2023-09-19T08:24:28;1.25;;;1.25;;
36221;SDS011;22266;52.340;4.962;2023-09-19T08:26:56;3.33;;;2.00;;
36221;SDS011;22266;52.340;4.962;2023-09-19T08:29:24;2.67;;;2.67;;
36221;SDS011;22266;52.340;4.962;2023-09-19T08:31:54;7.33;;;2.00;;
36221;SDS011;22266;52.340;4.962;2023-09-19T08:34:22;2.00;;;1.00;;
36221;SDS011;22266;52.340;4.962;2023-09-19T08:36:50;4.00;;;1.33;;
36221;SDS011;22266;52.340;4.962;2023-09-19T08:39:19;1.00;;;1.00;;
36221;SDS011;22266;52.340;4.962;2023-09-19T08:41:45;1.75;;;1.00;;
36221;SDS011;22266;52.340;4.962;2023-09-19T08:44:12;3.00;;;2.00;;
36221;SDS011;22266;52.340;4.962;2023-09-19T08:46:40;4.75;;;2.75;;
36221;SDS011;22266;52.340;4.962;2023-09-19T08:49:10;1.25;;;1.25;;
36221;SDS011;22266;52.340;4.962;2023-09-19T08:51:48;4.50;;;3.50;;
36221;SDS011;22266;52.340;4.962;2023-09-19T08:54:28;2.25;;;2.25;;
36221;SDS011;22266;52.340;4.962;2023-09-19T08:57:00;2.00;;;2.00;;
36221;SDS011;22266;52.340;4.962;2023-09-19T08:59:34;2.75;;;2.50;;
36221;SDS011;22266;52.340;4.962;2023-09-19T09:02:12;3.00;;;3.00;;
36221;SDS011;22266;52.340;4.962;2023-09-19T09:04:43;3.33;;;2.00;;
36221;SDS011;22266;52.340;4.962;2023-09-19T09:07:11;3.25;;;1.75;;
36221;SDS011;22266;52.340;4.962;2023-09-19T09:09:39;2.75;;;2.75;;
36221;SDS011;22266;52.340;4.962;2023-09-19T09:12:10;3.67;;;2.33;;
36221;SDS011;22266;52.340;4.962;2023-09-19T09:14:39;3.50;;;3.00;;
36221;SDS011;22266;52.340;4.962;2023-09-19T09:17:10;3.50;;;2.25;;
36221;SDS011;22266;52.340;4.962;2023-09-19T09:19:37;2.00;;;2.00;;
36221;SDS011;22266;52.340;4.962;2023-09-19T09:22:10;2.50;;;1.75;;
36221;SDS011;22266;52.340;4.962;2023-09-19T09:24:50;2.33;;;2.33;;
36221;SDS011;22266;52.340;4.962;2023-09-19T09:27:20;2.00;;;2.00;;
36221;SDS011;22266;52.340;4.962;2023-09-19T09:29:51;3.00;;;1.00;;
36221;SDS011;22266;52.340;4.962;2023-09-19T09:32:28;2.25;;;2.25;;
36221;SDS011;22266;52.340;4.962;2023-09-19T09:34:56;4.00;;;2.00;;
36221;SDS011;22266;52.340;4.962;2023-09-19T09:37:27;2.00;;;2.00;;
36221;SDS011;22266;52.340;4.962;2023-09-19T09:39:58;3.00;;;3.00;;
36221;SDS011;22266;52.340;4.962;2023-09-19T09:42:45;3.33;;;3.33;;
36221;SDS011;22266;52.340;4.962;2023-09-19T09:45:19;3.33;;;1.33;;
36221;SDS011;22266;52.340;4.962;2023-09-19T09:48:01;1.25;;;1.00;;
36221;SDS011;22266;52.340;4.962;2023-09-19T09:50:47;2.00;;;2.00;;
36221;SDS011;22266;52.340;4.962;2023-09-19T09:58:34;2.00;;;1.00;;
36221;SDS011;22266;52.340;4.962;2023-09-19T10:01:01;1.00;;;1.00;;
36221;SDS011;22266;52.340;4.962;2023-09-19T10:03:38;2.00;;;2.00;;
36221;SDS011;22266;52.340;4.962;2023-09-19T10:06:16;3.75;;;3.25;;
36221;SDS011;22266;52.340;4.962;2023-09-19T10:09:03;3.67;;;3.67;;
36221;SDS011;22266;52.340;4.962;2023-09-19T10:11:38;4.00;;;4.00;;
36221;SDS011;22266;52.340;4.962;2023-09-19T10:14:09;7.00;;;4.00;;
36221;SDS011;22266;52.340;4.962;2023-09-19T10:16:45;7.33;;;5.00;;
36221;SDS011;22266;52.340;4.962;2023-09-19T10:22:04;6.00;;;3.00;;
36221;SDS011;22266;52.340;4.962;2023-09-19T10:24:33;4.00;;;3.00;;
36221;SDS011;22266;52.340;4.962;2023-09-19T10:27:06;3.00;;;2.50;;
36221;SDS011;22266;52.340;4.962;2023-09-19T10:29:35;2.75;;;2.75;;
36221;SDS011;22266;52.340;4.962;2023-09-19T10:32:05;3.25;;;3.00;;
36221;SDS011;22266;52.340;4.962;2023-09-19T10:34:35;3.25;;;3.25;;
36221;SDS011;22266;52.340;4.962;2023-09-19T10:37:03;5.25;;;3.25;;
36221;SDS011;22266;52.340;4.962;2023-09-19T10:39:32;2.75;;;2.75;;
36221;SDS011;22266;52.340;4.962;2023-09-19T10:42:01;6.00;;;2.00;;
36221;SDS011;22266;52.340;4.962;2023-09-19T10:44:32;4.75;;;2.25;;
36221;SDS011;22266;52.340;4.962;2023-09-19T10:46:59;2.25;;;1.75;;
36221;SDS011;22266;52.340;4.962;2023-09-19T10:49:26;3.75;;;3.50;;
36221;SDS011;22266;52.340;4.962;2023-09-19T10:51:54;5.50;;;2.00;;
36221;SDS011;22266;52.340;4.962;2023-09-19T10:54:26;1.50;;;1.50;;
36221;SDS011;22266;52.340;4.962;2023-09-19T10:56:56;2.25;;;2.25;;
36221;SDS011;22266;52.340;4.962;2023-09-19T10:59:25;3.50;;;1.75;;
36221;SDS011;22266;52.340;4.962;2023-09-19T11:01:54;2.00;;;2.00;;
36221;SDS011;22266;52.340;4.962;2023-09-19T11:04:29;2.00;;;2.00;;
36221;SDS011;22266;52.340;4.962;2023-09-19T11:07:06;2.25;;;2.00;;
36221;SDS011;22266;52.340;4.962;2023-09-19T11:09:44;1.75;;;1.75;;
36221;SDS011;22266;52.340;4.962;2023-09-19T11:15:02;2.75;;;2.00;;
36221;SDS011;22266;52.340;4.962;2023-09-19T11:17:37;2.00;;;2.00;;
36221;SDS011;22266;52.340;4.962;2023-09-19T11:30:39;4.25;;;1.50;;
36221;SDS011;22266;52.340;4.962;2023-09-19T11:33:19;2.00;;;2.00;;
36221;SDS011;22266;52.340;4.962;2023-09-19T11:43:52;0.75;;;0.75;;
36221;SDS011;22266;52.340;4.962;2023-09-19T11:46:33;1.00;;;1.00;;
36221;SDS011;22266;52.340;4.962;2023-09-19T11:49:07;2.00;;;1.00;;
36221;SDS011;22266;52.340;4.962;2023-09-19T11:51:40;1.25;;;1.25;;
36221;SDS011;22266;52.340;4.962;2023-09-19T11:54:11;4.00;;;2.00;;
36221;SDS011;22266;52.340;4.962;2023-09-19T11:56:45;1.25;;;1.25;;
36221;SDS011;22266;52.340;4.962;2023-09-19T11:59:22;1.75;;;1.75;;
36221;SDS011;22266;52.340;4.962;2023-09-19T12:01:53;2.00;;;1.50;;
36221;SDS011;22266;52.340;4.962;2023-09-19T12:04:36;4.25;;;2.00;;
36221;SDS011;22266;52.340;4.962;2023-09-19T12:07:10;1.00;;;1.00;;
36221;SDS011;22266;52.340;4.962;2023-09-19T12:09:45;1.75;;;1.75;;
36221;SDS011;22266;52.340;4.962;2023-09-19T12:12:24;2.25;;;2.25;;
36221;SDS011;22266;52.340;4.962;2023-09-19T12:14:54;2.25;;;1.00;;
36221;SDS011;22266;52.340;4.962;2023-09-19T12:17:23;1.00;;;1.00;;
36221;SDS011;22266;52.340;4.962;2023-09-19T12:19:55;1.00;;;0.75;;
36221;SDS011;22266;52.340;4.962;2023-09-19T12:22:22;2.00;;;2.00;;
36221;SDS011;22266;52.340;4.962;2023-09-19T12:24:49;0.75;;;0.75;;
36221;SDS011;22266;52.340;4.962;2023-09-19T12:27:17;5.00;;;4.00;;
36221;SDS011;22266;52.340;4.962;2023-09-19T12:32:17;2.00;;;2.00;;
36221;SDS011;22266;52.340;4.962;2023-09-19T12:34:50;2.00;;;2.00;;
36221;SDS011;22266;52.340;4.962;2023-09-19T12:37:19;1.00;;;1.00;;
36221;SDS011;22266;52.340;4.962;2023-09-19T12:39:50;2.25;;;2.00;;
36221;SDS011;22266;52.340;4.962;2023-09-19T12:42:25;2.00;;;2.00;;
36221;SDS011;22266;52.340;4.962;2023-09-19T12:44:58;1.00;;;1.00;;
36221;SDS011;22266;52.340;4.962;2023-09-19T12:47:27;1.50;;;1.50;;
36221;SDS011;22266;52.340;4.962;2023-09-19T12:52:36;1.00;;;1.00;;
36221;SDS011;22266;52.340;4.962;2023-09-19T12:55:03;1.25;;;1.00;;
36221;SDS011;22266;52.340;4.962;2023-09-19T12:57:31;2.25;;;2.00;;
36221;SDS011;22266;52.340;4.962;2023-09-19T13:00:03;2.00;;;2.00;;
36221;SDS011;22266;52.340;4.962;2023-09-19T13:02:37;1.00;;;1.00;;
36221;SDS011;22266;52.340;4.962;2023-09-19T13:05:04;3.75;;;1.25;;
36221;SDS011;22266;52.340;4.962;2023-09-19T13:07:39;1.00;;;1.00;;
36221;SDS011;22266;52.340;4.962;2023-09-19T13:10:10;1.50;;;1.50;;
36221;SDS011;22266;52.340;4.962;2023-09-19T13:12:37;1.75;;;1.00;;
36221;SDS011;22266;52.340;4.962;2023-09-19T13:15:11;1.00;;;1.00;;
36221;SDS011;22266;52.340;4.962;2023-09-19T13:17:43;2.00;;;1.00;;
36221;SDS011;22266;52.340;4.962;2023-09-19T13:20:24;1.75;;;1.75;;
36221;SDS011;22266;52.340;4.962;2023-09-19T13:22:55;1.00;;;1.00;;
36221;SDS011;22266;52.340;4.962;2023-09-19T13:25:26;0.75;;;0.75;;
36221;SDS011;22266;52.340;4.962;2023-09-19T13:27:56;2.00;;;1.25;;
36221;SDS011;22266;52.340;4.962;2023-09-19T13:30:24;1.00;;;1.00;;
36221;SDS011;22266;52.340;4.962;2023-09-19T13:32:52;1.25;;;1.25;;
36221;SDS011;22266;52.340;4.962;2023-09-19T13:35:30;1.00;;;1.00;;
36221;SDS011;22266;52.340;4.962;2023-09-19T13:37:57;0.50;;;0.50;;
36221;SDS011;22266;52.340;4.962;2023-09-19T13:40:24;2.00;;;1.00;;
36221;SDS011;22266;52.340;4.962;2023-09-19T13:42:56;6.50;;;2.50;;
36221;SDS011;22266;52.340;4.962;2023-09-19T13:45:23;2.00;;;2.00;;
36221;SDS011;22266;52.340;4.962;2023-09-19T13:47:51;1.75;;;1.75;;
36221;SDS011;22266;52.340;4.962;2023-09-19T13:50:17;1.00;;;1.00;;
36221;SDS011;22266;52.340;4.962;2023-09-19T13:52:50;2.25;;;2.25;;
36221;SDS011;22266;52.340;4.962;2023-09-19T13:55:17;1.75;;;0.50;;
36221;SDS011;22266;52.340;4.962;2023-09-19T13:57:47;1.00;;;1.00;;
36221;SDS011;22266;52.340;4.962;2023-09-19T14:00:18;1.50;;;1.50;;
36221;SDS011;22266;52.340;4.962;2023-09-19T14:02:45;1.00;;;1.00;;
36221;SDS011;22266;52.340;4.962;2023-09-19T14:05:12;2.00;;;2.00;;
36221;SDS011;22266;52.340;4.962;2023-09-19T14:07:41;2.25;;;2.25;;
36221;SDS011;22266;52.340;4.962;2023-09-19T14:10:09;5.00;;;2.00;;
36221;SDS011;22266;52.340;4.962;2023-09-19T14:12:37;2.00;;;2.00;;
36221;SDS011;22266;52.340;4.962;2023-09-19T14:15:04;2.75;;;1.75;;
36221;SDS011;22266;52.340;4.962;2023-09-19T14:17:31;2.00;;;2.00;;
36221;SDS011;22266;52.340;4.962;2023-09-19T14:19:58;2.00;;;2.00;;
36221;SDS011;22266;52.340;4.962;2023-09-19T14:22:24;0.00;;;0.00;;
36221;SDS011;22266;52.340;4.962;2023-09-19T14:24:51;2.00;;;2.00;;
36221;SDS011;22266;52.340;4.962;2023-09-19T14:27:18;2.25;;;2.00;;
36221;SDS011;22266;52.340;4.962;2023-09-19T14:29:45;1.25;;;1.25;;
36221;SDS011;22266;52.340;4.962;2023-09-19T14:32:11;2.25;;;2.00;;
36221;SDS011;22266;52.340;4.962;2023-09-19T14:34:39;2.50;;;2.00;;
36221;SDS011;22266;52.340;4.962;2023-09-19T14:37:09;4.00;;;3.00;;
36221;SDS011;22266;52.340;4.962;2023-09-19T14:39:37;2.00;;;2.00;;
36221;SDS011;22266;52.340;4.962;2023-09-19T14:42:05;4.00;;;3.00;;
36221;SDS011;22266;52.340;4.962;2023-09-19T14:44:32;2.50;;;2.50;;
36221;SDS011;22266;52.340;4.962;2023-09-19T14:46:58;3.00;;;2.75;;
36221;SDS011;22266;52.340;4.962;2023-09-19T14:49:25;2.25;;;2.25;;
36221;SDS011;22266;52.340;4.962;2023-09-19T14:51:52;2.00;;;2.00;;
36221;SDS011;22266;52.340;4.962;2023-09-19T14:54:18;3.00;;;3.00;;
36221;SDS011;22266;52.340;4.962;2023-09-19T14:56:45;2.25;;;2.25;;
36221;SDS011;22266;52.340;4.962;2023-09-19T14:59:11;3.00;;;3.00;;
36221;SDS011;22266;52.340;4.962;2023-09-19T15:01:39;3.00;;;1.00;;
36221;SDS011;22266;52.340;4.962;2023-09-19T15:04:07;3.00;;;2.00;;
36221;SDS011;22266;52.340;4.962;2023-09-19T15:06:35;2.00;;;2.00;;
36221;SDS011;22266;52.340;4.962;2023-09-19T15:09:01;2.25;;;2.25;;
36221;SDS011;22266;52.340;4.962;2023-09-19T15:11:30;5.50;;;3.00;;
36221;SDS011;22266;52.340;4.962;2023-09-19T15:13:57;2.75;;;2.75;;
36221;SDS011;22266;52.340;4.962;2023-09-19T15:16:25;1.75;;;1.75;;
36221;SDS011;22266;52.340;4.962;2023-09-19T15:18:51;2.25;;;2.25;;
36221;SDS011;22266;52.340;4.962;2023-09-19T15:21:18;3.50;;;2.25;;
36221;SDS011;22266;52.340;4.962;2023-09-19T15:23:45;3.25;;;3.00;;
36221;SDS011;22266;52.340;4.962;2023-09-19T15:26:13;2.25;;;2.00;;
36221;SDS011;22266;52.340;4.962;2023-09-19T15:28:47;1.75;;;1.50;;
36221;SDS011;22266;52.340;4.962;2023-09-19T15:31:14;2.00;;;2.00;;
36221;SDS011;22266;52.340;4.962;2023-09-19T15:33:41;4.00;;;2.75;;
36221;SDS011;22266;52.340;4.962;2023-09-19T15:36:08;2.00;;;2.00;;
36221;SDS011;22266;52.340;4.962;2023-09-19T15:41:30;1.75;;;1.75;;
36221;SDS011;22266;52.340;4.962;2023-09-19T15:43:58;1.00;;;1.00;;
36221;SDS011;22266;52.340;4.962;2023-09-19T15:46:30;4.75;;;2.75;;
36221;SDS011;22266;52.340;4.962;2023-09-19T15:48:59;2.00;;;2.00;;
36221;SDS011;22266;52.340;4.962;2023-09-19T15:51:27;1.50;;;1.50;;
36221;SDS011;22266;52.340;4.962;2023-09-19T15:53:54;2.25;;;2.00;;
36221;SDS011;22266;52.340;4.962;2023-09-19T15:56:22;7.00;;;3.00;;
36221;SDS011;22266;52.340;4.962;2023-09-19T15:58:51;2.00;;;2.00;;
36221;SDS011;22266;52.340;4.962;2023-09-19T16:01:18;2.50;;;2.50;;